createdAt,value
2023-08-12T00:01:07.695Z,3.07
2023-08-12T00:03:34.498Z,2.70
2023-08-12T00:06:06.466Z,3.50
2023-08-12T00:08:33.275Z,2.70
2023-08-12T00:10:59.947Z,2.57
2023-08-12T00:13:26.733Z,4.10
2023-08-12T00:15:53.494Z,3.50
2023-08-12T00:18:20.175Z,4.50
2023-08-12T00:20:47.257Z,2.67
2023-08-12T00:23:14.496Z,3.43
2023-08-12T00:25:41.221Z,2.77
2023-08-12T00:28:07.929Z,3.70
2023-08-12T00:30:34.722Z,3.10
2023-08-12T00:33:01.509Z,3.80
2023-08-12T00:35:28.311Z,2.67
2023-08-12T00:37:55.146Z,3.27
2023-08-12T00:40:21.858Z,2.60
2023-08-12T00:42:48.568Z,3.10
2023-08-12T00:45:15.307Z,2.73
2023-08-12T00:47:42.984Z,3.63
2023-08-12T00:50:10.309Z,3.70
2023-08-12T00:52:37.090Z,4.10
2023-08-12T00:55:04.320Z,3.23
2023-08-12T00:57:31.194Z,3.00
2023-08-12T00:59:58.225Z,3.03
2023-08-12T01:02:25.234Z,2.80
2023-08-12T01:04:51.987Z,2.60
2023-08-12T01:07:18.693Z,2.70
2023-08-12T01:09:45.415Z,4.50
2023-08-12T01:12:19.897Z,2.90
2023-08-12T01:14:58.717Z,3.63
2023-08-12T01:17:27.326Z,4.27
2023-08-12T01:19:54.401Z,3.57
2023-08-12T01:22:22.257Z,4.47
2023-08-12T01:24:48.958Z,3.47
2023-08-12T01:27:15.864Z,4.07
2023-08-12T01:29:44.660Z,3.90
2023-08-12T01:32:33.016Z,4.03
2023-08-12T01:35:04.507Z,3.30
2023-08-12T01:37:32.673Z,3.30
2023-08-12T01:40:01.918Z,3.97
2023-08-12T01:42:29.400Z,4.93
2023-08-12T01:44:56.179Z,3.33
2023-08-12T01:47:22.855Z,3.17
2023-08-12T01:49:49.529Z,3.77
2023-08-12T01:52:16.894Z,2.93
2023-08-12T01:54:43.634Z,3.63
2023-08-12T01:57:10.696Z,3.27
2023-08-12T01:59:37.837Z,5.10
2023-08-12T02:02:04.905Z,3.97
2023-08-12T02:04:32.037Z,4.07
2023-08-12T02:06:58.765Z,3.97
2023-08-12T02:09:25.467Z,3.87
2023-08-12T02:11:52.093Z,4.00
2023-08-12T02:14:18.810Z,5.37
2023-08-12T02:16:45.541Z,4.03
2023-08-12T02:19:12.237Z,4.87
2023-08-12T02:21:38.933Z,5.13
2023-08-12T02:24:05.908Z,5.27
2023-08-12T02:26:35.784Z,5.13
2023-08-12T02:29:02.552Z,3.53
2023-08-12T02:31:29.234Z,5.23
2023-08-12T02:33:55.879Z,8.33
2023-08-12T02:36:22.678Z,3.50
2023-08-12T02:38:49.370Z,4.47
2023-08-12T02:41:15.988Z,3.33
2023-08-12T02:43:42.709Z,10.33
2023-08-12T02:46:09.450Z,6.23
2023-08-12T02:48:37.284Z,6.33
2023-08-12T02:51:04.177Z,7.27
2023-08-12T02:53:30.850Z,8.57
2023-08-12T02:55:57.591Z,7.83
2023-08-12T02:58:24.449Z,11.27
2023-08-12T03:00:51.185Z,10.27
2023-08-12T03:03:17.968Z,9.03
2023-08-12T03:05:48.074Z,8.67
2023-08-12T03:08:14.951Z,8.07
2023-08-12T03:10:42.603Z,6.90
2023-08-12T03:13:09.458Z,6.00
2023-08-12T03:15:36.464Z,5.83
2023-08-12T03:18:03.239Z,5.70
2023-08-12T03:20:29.943Z,5.77
2023-08-12T03:22:56.623Z,5.00
2023-08-12T03:25:23.996Z,7.87
2023-08-12T03:27:50.660Z,9.23
2023-08-12T03:30:17.461Z,11.93
2023-08-12T03:32:44.154Z,8.57
2023-08-12T03:35:10.909Z,7.73
2023-08-12T03:37:37.589Z,8.53
2023-08-12T03:40:04.995Z,7.83
2023-08-12T03:42:31.764Z,6.30
2023-08-12T03:44:58.400Z,6.20
2023-08-12T03:47:25.954Z,6.90
2023-08-12T03:49:53.897Z,4.20
2023-08-12T03:52:20.515Z,4.87
2023-08-12T03:54:47.172Z,5.13
2023-08-12T03:57:14.324Z,4.17
2023-08-12T03:59:41.338Z,3.93
2023-08-12T04:02:07.983Z,3.63
2023-08-12T04:04:34.640Z,3.60
2023-08-12T04:07:01.550Z,5.80
2023-08-12T04:09:28.286Z,4.83
2023-08-12T04:11:55.023Z,4.87
2023-08-12T04:14:21.722Z,4.40
2023-08-12T04:16:48.480Z,3.50
2023-08-12T04:19:15.234Z,4.77
2023-08-12T04:21:41.982Z,5.40
2023-08-12T04:24:09.411Z,6.43
2023-08-12T04:26:36.140Z,5.05
2023-08-12T04:29:03.374Z,4.45
2023-08-12T04:31:30.051Z,4.57
2023-08-12T04:33:56.787Z,4.70
2023-08-12T04:36:23.429Z,4.47
2023-08-12T04:38:51.102Z,4.82
2023-08-12T04:41:17.986Z,6.22
2023-08-12T04:43:44.741Z,3.85
2023-08-12T04:46:11.548Z,5.25
2023-08-12T04:48:38.204Z,3.53
2023-08-12T04:51:06.379Z,3.67
2023-08-12T04:53:33.024Z,4.72
2023-08-12T04:55:59.733Z,5.15
2023-08-12T04:58:26.911Z,2.95
2023-08-12T05:00:53.573Z,5.30
2023-08-12T05:03:20.387Z,4.68
2023-08-12T05:05:53.702Z,4.90
2023-08-12T05:08:20.623Z,4.80
2023-08-12T05:10:50.335Z,4.78
2023-08-12T05:13:17.669Z,6.82
2023-08-12T05:15:48.489Z,6.70
2023-08-12T05:18:15.730Z,7.03
2023-08-12T05:20:45.566Z,5.40
2023-08-12T05:23:13.495Z,5.13
2023-08-12T05:25:40.922Z,6.30
2023-08-12T05:28:08.745Z,7.03
2023-08-12T05:30:36.538Z,8.75
2023-08-12T05:33:04.189Z,10.32
2023-08-12T05:35:37.226Z,9.27
2023-08-12T05:38:04.183Z,7.90
2023-08-12T05:40:30.876Z,7.38
2023-08-12T05:42:57.565Z,8.80
2023-08-12T05:45:24.344Z,6.78
2023-08-12T05:47:51.106Z,10.07
2023-08-12T05:50:17.780Z,5.93
2023-08-12T05:52:45.187Z,5.28
2023-08-12T05:55:12.082Z,7.93
2023-08-12T05:57:38.768Z,13.73
2023-08-12T06:00:06.297Z,9.05
2023-08-12T06:02:33.060Z,7.88
2023-08-12T06:04:59.899Z,6.97
2023-08-12T06:07:26.523Z,3.60
2023-08-12T06:09:53.392Z,6.10
2023-08-12T06:12:20.126Z,5.20
2023-08-12T06:14:46.813Z,4.97
2023-08-12T06:17:13.600Z,3.97
2023-08-12T06:19:40.459Z,5.93
2023-08-12T06:22:07.153Z,4.93
2023-08-12T06:24:33.831Z,4.55
2023-08-12T06:27:00.651Z,5.13
2023-08-12T06:29:27.462Z,5.90
2023-08-12T06:31:54.386Z,4.00
2023-08-12T06:34:21.184Z,5.25
2023-08-12T06:36:47.879Z,6.13
2023-08-12T06:39:14.913Z,3.85
2023-08-12T06:41:41.624Z,8.15
2023-08-12T06:44:08.301Z,3.00
2023-08-12T06:46:35.092Z,4.18
2023-08-12T06:49:01.807Z,4.25
2023-08-12T06:51:28.564Z,3.63
2023-08-12T06:53:55.322Z,3.80
2023-08-12T06:56:22.050Z,3.83
2023-08-12T06:58:48.861Z,4.22
2023-08-12T07:01:16.002Z,3.40
2023-08-12T07:03:43.090Z,2.78
2023-08-12T07:06:09.875Z,4.25
2023-08-12T07:08:36.561Z,6.15
2023-08-12T07:11:03.334Z,3.72
2023-08-12T07:13:29.982Z,3.65
2023-08-12T07:15:57.034Z,4.22
2023-08-12T07:18:24.210Z,3.58
2023-08-12T07:20:51.612Z,4.18
2023-08-12T07:23:18.343Z,4.90
2023-08-12T07:25:49.968Z,3.13
2023-08-12T07:28:16.685Z,4.53
2023-08-12T07:30:43.566Z,3.08
2023-08-12T07:33:10.381Z,5.10
2023-08-12T07:35:37.190Z,2.58
2023-08-12T07:38:04.024Z,3.28
2023-08-12T07:40:30.834Z,3.33
2023-08-12T07:42:57.545Z,2.85
2023-08-12T07:45:24.275Z,2.63
2023-08-12T07:47:51.575Z,3.40
2023-08-12T07:50:18.743Z,3.53
2023-08-12T07:52:45.621Z,3.13
2023-08-12T07:55:13.533Z,3.10
2023-08-12T07:57:40.377Z,3.55
2023-08-12T08:00:09.290Z,3.50
2023-08-12T08:02:36.117Z,7.88
2023-08-12T08:05:03.943Z,2.95
2023-08-12T08:07:33.456Z,4.20
2023-08-12T08:10:00.328Z,4.93
2023-08-12T08:12:27.250Z,5.13
2023-08-12T08:14:54.017Z,2.92
2023-08-12T08:17:20.764Z,5.07
2023-08-12T08:19:47.453Z,3.95
2023-08-12T08:22:14.397Z,3.05
2023-08-12T08:24:41.459Z,2.70
2023-08-12T08:27:08.559Z,3.58
2023-08-12T08:29:35.268Z,2.90
2023-08-12T08:32:01.946Z,2.85
2023-08-12T08:34:28.595Z,2.80
2023-08-12T08:36:55.676Z,4.15
2023-08-12T08:39:22.660Z,2.85
2023-08-12T08:41:50.122Z,3.65
2023-08-12T08:44:18.869Z,2.42
2023-08-12T08:46:46.516Z,2.65
2023-08-12T08:49:13.450Z,5.05
2023-08-12T08:51:40.145Z,4.68
2023-08-12T08:54:07.173Z,4.22
2023-08-12T08:56:34.716Z,3.95
2023-08-12T08:59:04.254Z,3.47
2023-08-12T09:01:31.752Z,3.05
2023-08-12T09:03:59.353Z,2.58
2023-08-12T09:06:26.898Z,2.78
2023-08-12T09:08:53.687Z,3.08
2023-08-12T09:11:20.898Z,2.40
2023-08-12T09:13:48.014Z,2.83
2023-08-12T09:16:15.978Z,3.00
2023-08-12T09:18:45.856Z,2.70
2023-08-12T09:21:12.691Z,2.65
2023-08-12T09:23:41.107Z,4.03
2023-08-12T09:26:16.197Z,4.47
2023-08-12T09:28:43.714Z,4.20
2023-08-12T09:31:26.467Z,3.65
2023-08-12T09:33:53.926Z,3.50
2023-08-12T09:36:22.485Z,2.55
2023-08-12T09:38:49.161Z,3.35
2023-08-12T09:41:16.669Z,3.28
2023-08-12T09:43:44.077Z,5.35
2023-08-12T09:46:17.369Z,3.15
2023-08-12T09:48:44.490Z,5.28
2023-08-12T09:51:11.959Z,4.03
2023-08-12T09:53:38.887Z,3.30
2023-08-12T09:56:09.466Z,3.47
2023-08-12T09:58:38.153Z,3.83
2023-08-12T10:01:05.983Z,2.80
2023-08-12T10:03:34.363Z,3.03
2023-08-12T10:06:01.821Z,4.25
2023-08-12T10:08:28.973Z,2.97
2023-08-12T10:11:07.149Z,3.55
2023-08-12T10:13:38.773Z,3.90
2023-08-12T10:16:05.576Z,3.60
2023-08-12T10:18:32.755Z,2.88
2023-08-12T10:21:01.315Z,4.82
2023-08-12T10:23:29.149Z,3.08
2023-08-12T10:25:55.934Z,4.40
2023-08-12T10:28:23.315Z,3.55
2023-08-12T10:30:50.568Z,3.28
2023-08-12T10:33:20.125Z,3.00
2023-08-12T10:35:48.212Z,3.28
2023-08-12T10:38:20.146Z,4.13
2023-08-12T10:40:47.533Z,3.05
2023-08-12T10:43:14.876Z,3.30
2023-08-12T10:45:53.888Z,2.90
2023-08-12T10:48:24.748Z,3.10
2023-08-12T10:51:00.012Z,3.83
2023-08-12T10:53:31.123Z,3.22
2023-08-12T10:56:03.053Z,2.90
2023-08-12T10:58:44.993Z,4.63
2023-08-12T11:01:18.915Z,3.20
2023-08-12T11:03:46.117Z,4.70
2023-08-12T11:06:12.865Z,4.93
2023-08-12T11:08:55.062Z,3.10
2023-08-12T11:11:23.759Z,4.65
2023-08-12T11:13:59.999Z,6.13
2023-08-12T11:16:36.956Z,3.78
2023-08-12T11:19:04.713Z,4.40
2023-08-12T11:21:31.533Z,3.13
2023-08-12T11:23:58.206Z,2.60
2023-08-12T11:26:25.428Z,4.30
2023-08-12T11:28:52.131Z,4.07
2023-08-12T11:31:18.937Z,4.20
2023-08-12T11:33:45.837Z,3.30
2023-08-12T11:36:12.584Z,6.00
2023-08-12T11:38:39.337Z,3.75
2023-08-12T11:41:06.032Z,5.03
2023-08-12T11:43:35.771Z,3.42
2023-08-12T11:46:02.483Z,3.37
2023-08-12T11:48:29.194Z,3.10
2023-08-12T11:50:56.307Z,2.90
2023-08-12T11:53:23.068Z,3.53
2023-08-12T11:55:49.876Z,4.55
2023-08-12T11:58:19.997Z,3.55
2023-08-12T12:00:50.515Z,5.18
2023-08-12T12:03:18.045Z,3.75
2023-08-12T12:05:47.724Z,3.53
2023-08-12T12:08:15.296Z,3.67
2023-08-12T12:10:42.232Z,3.10
2023-08-12T12:13:10.780Z,3.15
2023-08-12T12:15:43.050Z,3.55
2023-08-12T12:18:14.018Z,3.00
2023-08-12T12:20:56.405Z,2.78
2023-08-12T12:23:23.439Z,3.20
2023-08-12T12:25:50.178Z,2.92
2023-08-12T12:28:16.896Z,3.33
2023-08-12T12:30:43.638Z,3.60
2023-08-12T12:33:10.409Z,4.15
2023-08-12T12:35:47.778Z,3.40
2023-08-12T12:38:23.806Z,3.22
2023-08-12T12:40:50.436Z,3.50
2023-08-12T12:43:17.248Z,2.70
2023-08-12T12:45:43.952Z,2.97
2023-08-12T12:48:10.700Z,2.83
2023-08-12T12:50:39.053Z,3.55
2023-08-12T12:53:05.716Z,3.53
2023-08-12T12:55:32.412Z,3.33
2023-08-12T12:57:59.094Z,2.95
2023-08-12T13:00:25.761Z,4.78
2023-08-12T13:02:52.620Z,4.07
2023-08-12T13:05:19.373Z,3.95
2023-08-12T13:07:46.041Z,3.33
2023-08-12T13:10:12.763Z,3.55
2023-08-12T13:12:39.490Z,2.75
2023-08-12T13:15:08.241Z,3.35
2023-08-12T13:17:35.045Z,3.40
2023-08-12T13:20:01.806Z,3.30
2023-08-12T13:22:28.503Z,3.00
2023-08-12T13:24:55.158Z,4.30
2023-08-12T13:27:22.281Z,2.88
2023-08-12T13:29:48.953Z,4.50
2023-08-12T13:32:15.951Z,3.78
2023-08-12T13:34:44.456Z,4.13
2023-08-12T13:37:11.710Z,4.07
2023-08-12T13:39:38.609Z,2.95
2023-08-12T13:42:05.717Z,3.53
2023-08-12T13:44:32.389Z,2.83
2023-08-12T13:46:59.077Z,4.15
2023-08-12T13:49:25.912Z,2.78
2023-08-12T13:51:52.560Z,3.72
2023-08-12T13:54:19.662Z,4.72
2023-08-12T13:56:46.338Z,3.03
2023-08-12T13:59:13.064Z,3.30
2023-08-12T14:01:41.226Z,3.90
2023-08-12T14:04:09.977Z,5.00
2023-08-12T14:06:36.907Z,3.88
2023-08-12T14:09:03.669Z,5.78
2023-08-12T14:11:30.312Z,4.50
2023-08-12T14:13:58.844Z,3.60
2023-08-12T14:16:25.812Z,4.13
2023-08-12T14:18:53.671Z,6.03
2023-08-12T14:21:20.391Z,4.53
2023-08-12T14:23:47.102Z,4.57
2023-08-12T14:26:13.799Z,4.33
2023-08-12T14:28:40.497Z,7.18
2023-08-12T14:31:07.340Z,4.78
2023-08-12T14:33:34.102Z,3.95
2023-08-12T14:36:01.317Z,4.83
2023-08-12T14:38:28.132Z,5.13
2023-08-12T14:40:54.785Z,4.57
2023-08-12T14:43:21.522Z,4.03
2023-08-12T14:45:48.350Z,5.47
2023-08-12T14:48:19.294Z,7.57
2023-08-12T14:50:46.249Z,6.55
2023-08-12T14:53:12.982Z,4.22
2023-08-12T14:55:39.723Z,4.00
2023-08-12T14:58:06.391Z,4.10
2023-08-12T15:00:34.957Z,4.13
2023-08-12T15:03:01.859Z,4.43
2023-08-12T15:05:28.637Z,4.13
2023-08-12T15:07:55.384Z,4.57
2023-08-12T15:10:22.026Z,5.00
2023-08-12T15:12:48.717Z,4.10
2023-08-12T15:15:15.573Z,4.43
2023-08-12T15:17:42.395Z,6.35
2023-08-12T15:20:11.705Z,5.20
2023-08-12T15:22:38.566Z,7.13
2023-08-12T15:25:05.910Z,5.30
2023-08-12T15:27:32.918Z,5.03
2023-08-12T15:30:01.794Z,8.50
2023-08-12T15:32:28.540Z,6.50
2023-08-12T15:34:55.298Z,5.40
2023-08-12T15:37:22.116Z,7.32
2023-08-12T15:39:48.926Z,4.85
2023-08-12T15:42:15.738Z,4.75
2023-08-12T15:44:43.000Z,5.32
2023-08-12T15:47:09.789Z,5.77
2023-08-12T15:49:36.554Z,6.25
2023-08-12T15:52:03.662Z,6.63
2023-08-12T15:54:30.481Z,5.00
2023-08-12T15:56:57.742Z,7.38
2023-08-12T15:59:24.482Z,5.03
2023-08-12T16:01:51.210Z,5.90
2023-08-12T16:04:17.980Z,4.47
2023-08-12T16:06:45.636Z,4.40
2023-08-12T16:09:18.779Z,4.97
2023-08-12T16:11:46.587Z,6.85
2023-08-12T16:14:13.474Z,4.22
2023-08-12T16:16:40.444Z,5.13
2023-08-12T16:19:07.620Z,5.20
2023-08-12T16:21:34.637Z,4.35
2023-08-12T16:24:01.425Z,4.40
2023-08-12T16:26:28.116Z,5.03
2023-08-12T16:28:54.985Z,6.22
2023-08-12T16:31:22.203Z,5.03
2023-08-12T16:33:48.961Z,9.65
2023-08-12T16:36:15.649Z,4.57
2023-08-12T16:38:42.624Z,5.38
2023-08-12T16:41:09.334Z,3.90
2023-08-12T16:43:35.989Z,4.50
2023-08-12T16:46:02.705Z,5.53
2023-08-12T16:48:29.460Z,4.07
2023-08-12T16:50:56.183Z,7.50
2023-08-12T16:53:22.902Z,6.00
2023-08-12T16:55:49.572Z,25.73
2023-08-12T16:58:16.249Z,9.68
2023-08-12T17:00:43.726Z,7.32
2023-08-12T17:03:10.635Z,5.55
2023-08-12T17:05:37.324Z,4.35
2023-08-12T17:08:04.219Z,8.57
2023-08-12T17:10:31.030Z,6.80
2023-08-12T17:12:57.782Z,4.37
2023-08-12T17:15:24.568Z,3.92
2023-08-12T17:17:51.420Z,4.75
2023-08-12T17:20:18.789Z,4.80
2023-08-12T17:22:45.515Z,9.40
2023-08-12T17:25:12.467Z,4.97
2023-08-12T17:27:39.154Z,4.38
2023-08-12T17:30:06.510Z,4.68
2023-08-12T17:32:33.385Z,4.18
2023-08-12T17:35:00.181Z,5.53
2023-08-12T17:37:26.918Z,5.18
2023-08-12T17:39:53.783Z,5.10
2023-08-12T17:42:20.757Z,6.13
2023-08-12T17:44:47.462Z,5.28
2023-08-12T17:47:14.251Z,8.57
2023-08-12T17:49:40.955Z,8.25
2023-08-12T17:52:07.630Z,6.03
2023-08-12T17:54:34.315Z,7.85
2023-08-12T17:57:01.093Z,7.35
2023-08-12T17:59:27.780Z,6.85
2023-08-12T18:01:54.500Z,7.85
2023-08-12T18:04:21.166Z,7.63
2023-08-12T18:06:47.911Z,5.80
2023-08-12T18:09:14.610Z,5.95
2023-08-12T18:11:41.382Z,7.38
2023-08-12T18:14:08.119Z,6.95
2023-08-12T18:16:34.959Z,6.72
2023-08-12T18:19:01.808Z,8.40
2023-08-12T18:21:28.492Z,11.13
2023-08-12T18:23:55.209Z,6.80
2023-08-12T18:26:21.916Z,9.68
2023-08-12T18:28:48.565Z,10.25
2023-08-12T18:31:15.260Z,6.70
2023-08-12T18:33:42.123Z,8.52
2023-08-12T18:36:08.776Z,11.15
2023-08-12T18:38:35.489Z,6.72
2023-08-12T18:41:03.309Z,8.63
2023-08-12T18:43:30.024Z,7.32
2023-08-12T18:45:56.727Z,7.63
2023-08-12T18:48:23.654Z,6.70
2023-08-12T18:50:50.355Z,6.53
2023-08-12T18:53:17.270Z,7.95
2023-08-12T18:55:44.641Z,8.60
2023-08-12T18:58:11.315Z,7.13
2023-08-12T19:00:38.050Z,7.25
2023-08-12T19:03:05.053Z,8.98
2023-08-12T19:05:31.926Z,10.10
2023-08-12T19:07:58.964Z,7.78
2023-08-12T19:10:25.754Z,8.80
2023-08-12T19:12:52.405Z,10.43
2023-08-12T19:15:19.093Z,6.30
2023-08-12T19:17:45.837Z,6.03
2023-08-12T19:20:12.827Z,7.25
2023-08-12T19:22:39.776Z,6.90
2023-08-12T19:25:06.657Z,9.50
2023-08-12T19:27:33.331Z,6.35
2023-08-12T19:30:00.052Z,5.95
2023-08-12T19:32:27.320Z,6.03
2023-08-12T19:34:53.978Z,7.75
2023-08-12T19:37:20.630Z,7.80
2023-08-12T19:39:47.337Z,6.65
2023-08-12T19:42:14.196Z,7.43
2023-08-12T19:44:41.070Z,6.43
2023-08-12T19:47:08.951Z,6.93
2023-08-12T19:49:36.051Z,8.27
2023-08-12T19:52:02.768Z,7.57
2023-08-12T19:54:29.871Z,5.78
2023-08-12T19:56:57.173Z,9.45
2023-08-12T19:59:23.853Z,6.95
2023-08-12T20:01:50.590Z,8.15
2023-08-12T20:04:17.285Z,5.78
2023-08-12T20:06:44.203Z,6.63
2023-08-12T20:09:10.878Z,8.23
2023-08-12T20:11:37.875Z,6.22
2023-08-12T20:14:04.935Z,6.90
2023-08-12T20:16:32.684Z,5.47
2023-08-12T20:18:59.488Z,6.03
2023-08-12T20:21:26.534Z,5.30
2023-08-12T20:23:53.247Z,5.30
2023-08-12T20:26:20.054Z,6.73
2023-08-12T20:28:46.723Z,5.67
2023-08-12T20:31:13.445Z,7.40
2023-08-12T20:33:40.419Z,6.20
2023-08-12T20:36:07.884Z,7.53
2023-08-12T20:38:34.786Z,6.23
2023-08-12T20:41:01.679Z,5.33
2023-08-12T20:43:28.438Z,6.27
2023-08-12T20:45:55.155Z,4.30
2023-08-12T20:48:22.893Z,5.07
2023-08-12T20:50:49.640Z,5.67
2023-08-12T20:53:17.240Z,5.33
2023-08-12T20:55:43.981Z,7.77
2023-08-12T20:58:10.643Z,6.97
2023-08-12T21:00:37.313Z,6.00
2023-08-12T21:03:04.326Z,5.27
2023-08-12T21:05:31.142Z,5.33
2023-08-12T21:07:57.878Z,6.00
2023-08-12T21:10:24.773Z,10.10
2023-08-12T21:12:51.472Z,5.97
2023-08-12T21:15:18.178Z,6.63
2023-08-12T21:17:44.937Z,5.70
2023-08-12T21:20:12.175Z,6.27
2023-08-12T21:22:38.875Z,5.33
2023-08-12T21:25:06.092Z,6.50
2023-08-12T21:27:32.928Z,5.13
2023-08-12T21:29:59.953Z,5.60
2023-08-12T21:32:26.897Z,5.50
2023-08-12T21:34:53.625Z,6.50
2023-08-12T21:37:20.282Z,4.97
2023-08-12T21:39:46.965Z,5.10
2023-08-12T21:42:14.067Z,7.00
2023-08-12T21:44:40.905Z,5.40
2023-08-12T21:47:07.649Z,5.60
2023-08-12T21:49:34.468Z,7.20
2023-08-12T21:52:01.139Z,5.37
2023-08-12T21:54:27.801Z,6.03
2023-08-12T21:56:55.173Z,5.10
2023-08-12T21:59:21.901Z,4.73
2023-08-12T22:01:48.792Z,5.67
2023-08-12T22:04:15.891Z,6.87
2023-08-12T22:06:43.078Z,6.23
2023-08-12T22:09:10.021Z,5.23
2023-08-12T22:11:36.734Z,5.63
2023-08-12T22:14:03.535Z,6.03
2023-08-12T22:16:32.232Z,5.20
2023-08-12T22:18:59.415Z,5.63
2023-08-12T22:21:26.198Z,5.13
2023-08-12T22:23:53.569Z,7.40
2023-08-12T22:26:20.376Z,6.87
2023-08-12T22:28:47.318Z,6.60
2023-08-12T22:31:14.150Z,5.57
2023-08-12T22:33:40.911Z,5.80
2023-08-12T22:36:09.919Z,6.43
2023-08-12T22:38:37.366Z,6.80
2023-08-12T22:41:04.093Z,7.77
2023-08-12T22:43:30.925Z,6.00
2023-08-12T22:45:57.777Z,5.33
2023-08-12T22:48:24.774Z,7.00
2023-08-12T22:50:51.494Z,5.13
2023-08-12T22:53:18.768Z,6.27
2023-08-12T22:55:45.495Z,5.50
2023-08-12T22:58:12.234Z,5.63
2023-08-12T23:00:38.969Z,6.70
2023-08-12T23:03:06.284Z,7.27
2023-08-12T23:05:33.017Z,6.13
2023-08-12T23:07:59.748Z,6.70
2023-08-12T23:10:26.633Z,5.33
2023-08-12T23:12:53.412Z,5.17
2023-08-12T23:15:20.187Z,8.33
2023-08-12T23:17:46.933Z,4.80
2023-08-12T23:20:13.720Z,5.57
2023-08-12T23:22:40.395Z,8.00
2023-08-12T23:25:08.844Z,6.20
2023-08-12T23:27:36.891Z,6.57
2023-08-12T23:30:04.264Z,5.77
2023-08-12T23:32:31.723Z,6.70
2023-08-12T23:34:58.406Z,8.27
2023-08-12T23:37:25.077Z,8.07
2023-08-12T23:39:51.806Z,8.43
2023-08-12T23:42:19.112Z,8.83
2023-08-12T23:44:45.965Z,7.47
2023-08-12T23:47:12.715Z,7.13
2023-08-12T23:49:39.446Z,6.93
2023-08-12T23:52:06.535Z,7.20
2023-08-12T23:54:33.447Z,7.03
2023-08-12T23:57:02.099Z,6.60
2023-08-12T23:59:28.851Z,7.33
